Urbana, Illinois
Current Conditions -  °F | °C
As of 10:53 PM on Monday 20 Oct 2014 (Local Time) from KCMI Reporting Station
Broken Clouds Broken Clouds  
Wind Chill: 12°   Ceiling: 6500
Heat Index: 12°   Visibility: 10mi
Dew Point:   Wind: 8mph
Humidity: 75%   Direction: 30°NNE
Pressure: 30"   Gusts: NA
Location:  40.12°N, 88.2°W
Report Text: KCMI 210353Z 03007KT 10SM BKN065 12/08 A3000 RMK AO2 SLP160 T01220078 $
Loading
Personal Weather Stations






























Interactive Weather Map
Tropical Storm Tracking
New forecast layout! Learn more

10-Day Weather Forecast

Advertisements
Track Severe Weather on mobile